sensor_id;sensor_type;location;lat;lon;timestamp;P1;durP1;ratioP1;P2;durP2;ratioP2
35550;SDS011;21655;46.056;13.616;2023-07-31T00:01:52;7.75;;;2.00;;
35550;SDS011;21655;46.056;13.616;2023-07-31T00:04:18;8.77;;;2.00;;
35550;SDS011;21655;46.056;13.616;2023-07-31T00:06:43;11.63;;;2.50;;
35550;SDS011;21655;46.056;13.616;2023-07-31T00:09:08;5.88;;;2.15;;
35550;SDS011;21655;46.056;13.616;2023-07-31T00:11:34;4.40;;;2.00;;
35550;SDS011;21655;46.056;13.616;2023-07-31T00:13:59;7.22;;;1.98;;
35550;SDS011;21655;46.056;13.616;2023-07-31T00:16:25;6.35;;;1.90;;
35550;SDS011;21655;46.056;13.616;2023-07-31T00:18:51;7.38;;;2.17;;
35550;SDS011;21655;46.056;13.616;2023-07-31T00:21:16;8.98;;;2.67;;
35550;SDS011;21655;46.056;13.616;2023-07-31T00:23:41;6.85;;;2.10;;
35550;SDS011;21655;46.056;13.616;2023-07-31T00:26:07;10.32;;;2.10;;
35550;SDS011;21655;46.056;13.616;2023-07-31T00:28:32;13.02;;;2.78;;
35550;SDS011;21655;46.056;13.616;2023-07-31T00:30:58;7.43;;;2.15;;
35550;SDS011;21655;46.056;13.616;2023-07-31T00:33:23;6.20;;;2.13;;
35550;SDS011;21655;46.056;13.616;2023-07-31T00:35:48;3.28;;;1.88;;
35550;SDS011;21655;46.056;13.616;2023-07-31T00:38:14;6.78;;;2.10;;
35550;SDS011;21655;46.056;13.616;2023-07-31T00:40:39;5.65;;;2.15;;
35550;SDS011;21655;46.056;13.616;2023-07-31T00:43:05;6.13;;;2.00;;
35550;SDS011;21655;46.056;13.616;2023-07-31T00:45:30;9.10;;;2.38;;
35550;SDS011;21655;46.056;13.616;2023-07-31T00:47:57;4.93;;;2.03;;
35550;SDS011;21655;46.056;13.616;2023-07-31T00:50:24;6.30;;;1.80;;
35550;SDS011;21655;46.056;13.616;2023-07-31T00:52:50;7.38;;;1.70;;
35550;SDS011;21655;46.056;13.616;2023-07-31T00:55:15;5.20;;;2.30;;
35550;SDS011;21655;46.056;13.616;2023-07-31T00:57:42;3.83;;;2.00;;
35550;SDS011;21655;46.056;13.616;2023-07-31T01:00:08;7.75;;;2.67;;
35550;SDS011;21655;46.056;13.616;2023-07-31T01:02:34;6.13;;;2.40;;
35550;SDS011;21655;46.056;13.616;2023-07-31T01:05:00;6.57;;;2.47;;
35550;SDS011;21655;46.056;13.616;2023-07-31T01:07:35;7.00;;;2.13;;
35550;SDS011;21655;46.056;13.616;2023-07-31T01:10:21;3.70;;;2.00;;
35550;SDS011;21655;46.056;13.616;2023-07-31T01:12:51;6.90;;;1.95;;
35550;SDS011;21655;46.056;13.616;2023-07-31T01:15:18;9.85;;;2.40;;
35550;SDS011;21655;46.056;13.616;2023-07-31T01:17:44;5.10;;;1.80;;
35550;SDS011;21655;46.056;13.616;2023-07-31T01:20:11;7.53;;;2.72;;
35550;SDS011;21655;46.056;13.616;2023-07-31T01:25:56;9.80;;;2.10;;
35550;SDS011;21655;46.056;13.616;2023-07-31T01:31:13;7.03;;;2.40;;
35550;SDS011;21655;46.056;13.616;2023-07-31T01:33:41;6.78;;;2.22;;
35550;SDS011;21655;46.056;13.616;2023-07-31T01:36:07;9.05;;;2.17;;
35550;SDS011;21655;46.056;13.616;2023-07-31T01:38:33;8.43;;;2.13;;
35550;SDS011;21655;46.056;13.616;2023-07-31T01:40:58;11.82;;;2.22;;
35550;SDS011;21655;46.056;13.616;2023-07-31T01:43:24;4.85;;;2.08;;
35550;SDS011;21655;46.056;13.616;2023-07-31T01:45:49;16.95;;;2.53;;
35550;SDS011;21655;46.056;13.616;2023-07-31T01:48:15;10.00;;;2.30;;
35550;SDS011;21655;46.056;13.616;2023-07-31T01:50:40;8.52;;;2.40;;
35550;SDS011;21655;46.056;13.616;2023-07-31T01:53:05;12.13;;;2.50;;
35550;SDS011;21655;46.056;13.616;2023-07-31T01:55:31;8.82;;;2.38;;
35550;SDS011;21655;46.056;13.616;2023-07-31T01:57:56;12.60;;;2.70;;
35550;SDS011;21655;46.056;13.616;2023-07-31T02:00:22;7.43;;;2.10;;
35550;SDS011;21655;46.056;13.616;2023-07-31T02:02:47;6.72;;;2.13;;
35550;SDS011;21655;46.056;13.616;2023-07-31T02:05:12;9.05;;;2.00;;
35550;SDS011;21655;46.056;13.616;2023-07-31T02:07:38;10.77;;;2.00;;
35550;SDS011;21655;46.056;13.616;2023-07-31T02:10:03;8.05;;;2.25;;
35550;SDS011;21655;46.056;13.616;2023-07-31T02:12:29;10.25;;;2.38;;
35550;SDS011;21655;46.056;13.616;2023-07-31T02:14:58;5.88;;;2.00;;
35550;SDS011;21655;46.056;13.616;2023-07-31T02:17:24;9.75;;;2.42;;
35550;SDS011;21655;46.056;13.616;2023-07-31T02:19:49;9.02;;;2.38;;
35550;SDS011;21655;46.056;13.616;2023-07-31T02:22:15;7.70;;;2.53;;
35550;SDS011;21655;46.056;13.616;2023-07-31T02:24:40;3.33;;;2.03;;
35550;SDS011;21655;46.056;13.616;2023-07-31T02:27:05;6.93;;;1.98;;
35550;SDS011;21655;46.056;13.616;2023-07-31T02:29:31;3.65;;;2.20;;
35550;SDS011;21655;46.056;13.616;2023-07-31T02:31:56;9.30;;;1.95;;
35550;SDS011;21655;46.056;13.616;2023-07-31T02:34:22;7.45;;;2.40;;
35550;SDS011;21655;46.056;13.616;2023-07-31T02:36:47;9.02;;;2.45;;
35550;SDS011;21655;46.056;13.616;2023-07-31T02:39:13;9.40;;;2.33;;
35550;SDS011;21655;46.056;13.616;2023-07-31T02:41:38;8.10;;;2.30;;
35550;SDS011;21655;46.056;13.616;2023-07-31T02:44:03;5.00;;;1.88;;
35550;SDS011;21655;46.056;13.616;2023-07-31T02:46:29;9.25;;;2.22;;
35550;SDS011;21655;46.056;13.616;2023-07-31T02:48:54;6.15;;;2.17;;
35550;SDS011;21655;46.056;13.616;2023-07-31T02:51:20;5.40;;;2.03;;
35550;SDS011;21655;46.056;13.616;2023-07-31T02:53:46;10.45;;;2.28;;
35550;SDS011;21655;46.056;13.616;2023-07-31T02:56:12;10.65;;;2.42;;
35550;SDS011;21655;46.056;13.616;2023-07-31T02:58:38;4.05;;;2.00;;
35550;SDS011;21655;46.056;13.616;2023-07-31T03:01:03;4.60;;;2.00;;
35550;SDS011;21655;46.056;13.616;2023-07-31T03:03:29;7.47;;;1.90;;
35550;SDS011;21655;46.056;13.616;2023-07-31T03:05:54;9.65;;;2.25;;
35550;SDS011;21655;46.056;13.616;2023-07-31T03:08:20;4.25;;;1.98;;
35550;SDS011;21655;46.056;13.616;2023-07-31T03:10:46;16.63;;;2.90;;
35550;SDS011;21655;46.056;13.616;2023-07-31T03:13:11;6.05;;;2.35;;
35550;SDS011;21655;46.056;13.616;2023-07-31T03:15:37;6.38;;;2.25;;
35550;SDS011;21655;46.056;13.616;2023-07-31T03:18:02;5.88;;;1.70;;
35550;SDS011;21655;46.056;13.616;2023-07-31T03:20:27;5.97;;;2.30;;
35550;SDS011;21655;46.056;13.616;2023-07-31T03:22:53;8.55;;;2.28;;
35550;SDS011;21655;46.056;13.616;2023-07-31T03:25:18;4.25;;;2.00;;
35550;SDS011;21655;46.056;13.616;2023-07-31T03:27:44;7.35;;;2.17;;
35550;SDS011;21655;46.056;13.616;2023-07-31T03:30:09;7.20;;;2.20;;
35550;SDS011;21655;46.056;13.616;2023-07-31T03:32:35;6.68;;;2.20;;
35550;SDS011;21655;46.056;13.616;2023-07-31T03:35:00;9.73;;;2.00;;
35550;SDS011;21655;46.056;13.616;2023-07-31T03:37:26;10.15;;;2.17;;
35550;SDS011;21655;46.056;13.616;2023-07-31T03:39:51;7.15;;;1.92;;
35550;SDS011;21655;46.056;13.616;2023-07-31T03:42:16;7.75;;;2.15;;
35550;SDS011;21655;46.056;13.616;2023-07-31T03:44:42;6.07;;;1.80;;
35550;SDS011;21655;46.056;13.616;2023-07-31T03:47:07;7.72;;;2.10;;
35550;SDS011;21655;46.056;13.616;2023-07-31T03:49:33;7.97;;;2.17;;
35550;SDS011;21655;46.056;13.616;2023-07-31T03:51:58;5.07;;;1.73;;
35550;SDS011;21655;46.056;13.616;2023-07-31T03:54:24;5.65;;;2.15;;
35550;SDS011;21655;46.056;13.616;2023-07-31T03:56:49;6.18;;;2.25;;
35550;SDS011;21655;46.056;13.616;2023-07-31T03:59:14;7.50;;;1.92;;
35550;SDS011;21655;46.056;13.616;2023-07-31T04:01:40;7.20;;;1.90;;
35550;SDS011;21655;46.056;13.616;2023-07-31T04:04:05;10.90;;;2.17;;
35550;SDS011;21655;46.056;13.616;2023-07-31T04:06:31;9.40;;;1.98;;
35550;SDS011;21655;46.056;13.616;2023-07-31T04:08:56;5.55;;;2.00;;
35550;SDS011;21655;46.056;13.616;2023-07-31T04:11:22;4.53;;;1.63;;
35550;SDS011;21655;46.056;13.616;2023-07-31T04:13:47;7.68;;;1.77;;
35550;SDS011;21655;46.056;13.616;2023-07-31T04:16:13;6.78;;;2.10;;
35550;SDS011;21655;46.056;13.616;2023-07-31T04:18:38;5.70;;;2.20;;
35550;SDS011;21655;46.056;13.616;2023-07-31T04:21:03;6.80;;;2.30;;
35550;SDS011;21655;46.056;13.616;2023-07-31T04:23:29;5.82;;;1.90;;
35550;SDS011;21655;46.056;13.616;2023-07-31T04:25:55;7.88;;;1.88;;
35550;SDS011;21655;46.056;13.616;2023-07-31T04:28:20;8.57;;;2.15;;
35550;SDS011;21655;46.056;13.616;2023-07-31T04:30:46;9.88;;;2.28;;
35550;SDS011;21655;46.056;13.616;2023-07-31T04:33:12;7.80;;;1.77;;
35550;SDS011;21655;46.056;13.616;2023-07-31T04:35:37;10.65;;;2.10;;
35550;SDS011;21655;46.056;13.616;2023-07-31T04:38:03;6.38;;;1.50;;
35550;SDS011;21655;46.056;13.616;2023-07-31T04:40:28;4.53;;;1.60;;
35550;SDS011;21655;46.056;13.616;2023-07-31T04:42:54;5.53;;;1.70;;
35550;SDS011;21655;46.056;13.616;2023-07-31T04:45:19;4.25;;;1.70;;
35550;SDS011;21655;46.056;13.616;2023-07-31T04:47:44;4.22;;;1.55;;
35550;SDS011;21655;46.056;13.616;2023-07-31T04:50:10;7.78;;;2.08;;
35550;SDS011;21655;46.056;13.616;2023-07-31T04:52:35;4.50;;;2.47;;
35550;SDS011;21655;46.056;13.616;2023-07-31T04:55:01;4.97;;;1.60;;
35550;SDS011;21655;46.056;13.616;2023-07-31T04:57:26;7.32;;;1.90;;
35550;SDS011;21655;46.056;13.616;2023-07-31T04:59:51;4.85;;;1.88;;
35550;SDS011;21655;46.056;13.616;2023-07-31T05:02:17;8.82;;;1.70;;
35550;SDS011;21655;46.056;13.616;2023-07-31T05:04:42;4.55;;;1.65;;
35550;SDS011;21655;46.056;13.616;2023-07-31T05:07:08;4.93;;;1.80;;
35550;SDS011;21655;46.056;13.616;2023-07-31T05:09:33;6.43;;;1.70;;
35550;SDS011;21655;46.056;13.616;2023-07-31T05:11:59;4.88;;;1.40;;
35550;SDS011;21655;46.056;13.616;2023-07-31T05:14:25;4.60;;;1.45;;
35550;SDS011;21655;46.056;13.616;2023-07-31T05:16:51;3.55;;;1.33;;
35550;SDS011;21655;46.056;13.616;2023-07-31T05:19:16;2.55;;;1.27;;
35550;SDS011;21655;46.056;13.616;2023-07-31T05:21:42;3.10;;;1.15;;
35550;SDS011;21655;46.056;13.616;2023-07-31T05:24:07;8.35;;;1.60;;
35550;SDS011;21655;46.056;13.616;2023-07-31T05:26:33;5.93;;;1.58;;
35550;SDS011;21655;46.056;13.616;2023-07-31T05:28:58;5.93;;;1.38;;
35550;SDS011;21655;46.056;13.616;2023-07-31T05:31:24;4.90;;;1.65;;
35550;SDS011;21655;46.056;13.616;2023-07-31T05:33:50;3.10;;;1.60;;
35550;SDS011;21655;46.056;13.616;2023-07-31T05:36:16;2.13;;;1.17;;
35550;SDS011;21655;46.056;13.616;2023-07-31T05:38:42;6.18;;;1.30;;
35550;SDS011;21655;46.056;13.616;2023-07-31T05:41:09;3.00;;;1.40;;
35550;SDS011;21655;46.056;13.616;2023-07-31T05:43:35;3.13;;;1.40;;
35550;SDS011;21655;46.056;13.616;2023-07-31T05:46:00;3.85;;;1.13;;
35550;SDS011;21655;46.056;13.616;2023-07-31T05:48:26;1.80;;;1.20;;
35550;SDS011;21655;46.056;13.616;2023-07-31T05:50:52;11.10;;;1.65;;
35550;SDS011;21655;46.056;13.616;2023-07-31T05:53:17;4.68;;;1.40;;
35550;SDS011;21655;46.056;13.616;2023-07-31T05:55:42;6.18;;;1.52;;
35550;SDS011;21655;46.056;13.616;2023-07-31T05:58:08;5.30;;;1.42;;
35550;SDS011;21655;46.056;13.616;2023-07-31T06:00:33;2.33;;;1.30;;
35550;SDS011;21655;46.056;13.616;2023-07-31T06:02:59;4.07;;;1.50;;
35550;SDS011;21655;46.056;13.616;2023-07-31T06:05:24;5.50;;;1.30;;
35550;SDS011;21655;46.056;13.616;2023-07-31T06:07:51;5.20;;;1.80;;
35550;SDS011;21655;46.056;13.616;2023-07-31T06:10:16;2.78;;;1.45;;
35550;SDS011;21655;46.056;13.616;2023-07-31T06:12:41;3.28;;;1.00;;
35550;SDS011;21655;46.056;13.616;2023-07-31T06:15:07;7.53;;;3.67;;
35550;SDS011;21655;46.056;13.616;2023-07-31T06:17:33;4.20;;;1.67;;
35550;SDS011;21655;46.056;13.616;2023-07-31T06:19:58;2.72;;;1.20;;
35550;SDS011;21655;46.056;13.616;2023-07-31T06:22:23;2.92;;;1.23;;
35550;SDS011;21655;46.056;13.616;2023-07-31T06:24:49;2.40;;;1.15;;
35550;SDS011;21655;46.056;13.616;2023-07-31T06:27:14;3.03;;;1.20;;
35550;SDS011;21655;46.056;13.616;2023-07-31T06:29:40;4.25;;;1.20;;
35550;SDS011;21655;46.056;13.616;2023-07-31T06:32:06;2.97;;;1.38;;
35550;SDS011;21655;46.056;13.616;2023-07-31T06:34:31;3.92;;;1.70;;
35550;SDS011;21655;46.056;13.616;2023-07-31T06:36:57;3.83;;;1.40;;
35550;SDS011;21655;46.056;13.616;2023-07-31T06:39:22;3.85;;;1.92;;
35550;SDS011;21655;46.056;13.616;2023-07-31T06:41:48;3.25;;;1.55;;
35550;SDS011;21655;46.056;13.616;2023-07-31T06:44:13;2.33;;;1.20;;
35550;SDS011;21655;46.056;13.616;2023-07-31T06:46:39;5.32;;;1.23;;
35550;SDS011;21655;46.056;13.616;2023-07-31T06:49:04;2.95;;;1.42;;
35550;SDS011;21655;46.056;13.616;2023-07-31T06:51:29;2.47;;;1.13;;
35550;SDS011;21655;46.056;13.616;2023-07-31T06:53:56;6.95;;;1.42;;
35550;SDS011;21655;46.056;13.616;2023-07-31T06:56:22;3.55;;;1.27;;
35550;SDS011;21655;46.056;13.616;2023-07-31T06:58:48;2.33;;;1.25;;
35550;SDS011;21655;46.056;13.616;2023-07-31T07:01:13;2.15;;;1.13;;
35550;SDS011;21655;46.056;13.616;2023-07-31T07:03:38;1.73;;;1.20;;
35550;SDS011;21655;46.056;13.616;2023-07-31T07:06:04;4.50;;;1.60;;
35550;SDS011;21655;46.056;13.616;2023-07-31T07:08:29;2.97;;;1.40;;
35550;SDS011;21655;46.056;13.616;2023-07-31T07:10:55;5.93;;;1.35;;
35550;SDS011;21655;46.056;13.616;2023-07-31T07:13:21;5.43;;;1.20;;
35550;SDS011;21655;46.056;13.616;2023-07-31T07:15:50;4.47;;;1.30;;
35550;SDS011;21655;46.056;13.616;2023-07-31T07:18:16;3.60;;;1.33;;
35550;SDS011;21655;46.056;13.616;2023-07-31T07:20:52;3.53;;;1.55;;
35550;SDS011;21655;46.056;13.616;2023-07-31T07:23:18;2.65;;;1.23;;
35550;SDS011;21655;46.056;13.616;2023-07-31T07:25:45;2.42;;;1.23;;
35550;SDS011;21655;46.056;13.616;2023-07-31T07:28:12;2.85;;;1.35;;
35550;SDS011;21655;46.056;13.616;2023-07-31T07:30:38;2.90;;;1.40;;
35550;SDS011;21655;46.056;13.616;2023-07-31T07:33:04;5.65;;;1.88;;
35550;SDS011;21655;46.056;13.616;2023-07-31T07:35:30;3.13;;;1.45;;
35550;SDS011;21655;46.056;13.616;2023-07-31T07:37:55;2.22;;;1.30;;
35550;SDS011;21655;46.056;13.616;2023-07-31T07:40:21;2.85;;;1.35;;
35550;SDS011;21655;46.056;13.616;2023-07-31T07:42:47;2.47;;;1.50;;
35550;SDS011;21655;46.056;13.616;2023-07-31T07:45:12;2.92;;;1.00;;
35550;SDS011;21655;46.056;13.616;2023-07-31T07:47:40;2.08;;;1.30;;
35550;SDS011;21655;46.056;13.616;2023-07-31T07:50:06;3.30;;;1.15;;
35550;SDS011;21655;46.056;13.616;2023-07-31T07:52:32;2.67;;;1.10;;
35550;SDS011;21655;46.056;13.616;2023-07-31T07:54:57;6.95;;;1.40;;
35550;SDS011;21655;46.056;13.616;2023-07-31T07:57:23;2.53;;;1.25;;
35550;SDS011;21655;46.056;13.616;2023-07-31T07:59:48;2.88;;;1.20;;
35550;SDS011;21655;46.056;13.616;2023-07-31T08:02:13;3.22;;;1.30;;
35550;SDS011;21655;46.056;13.616;2023-07-31T08:04:39;3.03;;;1.30;;
35550;SDS011;21655;46.056;13.616;2023-07-31T08:07:04;2.30;;;1.23;;
35550;SDS011;21655;46.056;13.616;2023-07-31T08:09:30;6.18;;;1.33;;
35550;SDS011;21655;46.056;13.616;2023-07-31T08:11:55;2.80;;;1.35;;
35550;SDS011;21655;46.056;13.616;2023-07-31T08:14:26;3.33;;;1.23;;
35550;SDS011;21655;46.056;13.616;2023-07-31T08:16:52;5.28;;;1.25;;
35550;SDS011;21655;46.056;13.616;2023-07-31T08:19:17;3.75;;;1.20;;
35550;SDS011;21655;46.056;13.616;2023-07-31T08:21:43;1.70;;;1.10;;
35550;SDS011;21655;46.056;13.616;2023-07-31T08:24:08;2.15;;;1.33;;
35550;SDS011;21655;46.056;13.616;2023-07-31T08:26:34;4.32;;;1.25;;
35550;SDS011;21655;46.056;13.616;2023-07-31T08:28:59;4.72;;;1.42;;
35550;SDS011;21655;46.056;13.616;2023-07-31T08:31:24;2.83;;;1.45;;
35550;SDS011;21655;46.056;13.616;2023-07-31T08:33:50;2.00;;;1.20;;
35550;SDS011;21655;46.056;13.616;2023-07-31T08:36:15;3.42;;;1.20;;
35550;SDS011;21655;46.056;13.616;2023-07-31T08:38:41;4.05;;;1.42;;
35550;SDS011;21655;46.056;13.616;2023-07-31T08:41:06;2.28;;;1.30;;
35550;SDS011;21655;46.056;13.616;2023-07-31T08:43:32;3.53;;;1.30;;
35550;SDS011;21655;46.056;13.616;2023-07-31T08:45:57;8.68;;;1.40;;
35550;SDS011;21655;46.056;13.616;2023-07-31T08:48:23;5.07;;;1.50;;
35550;SDS011;21655;46.056;13.616;2023-07-31T08:50:49;4.53;;;1.63;;
35550;SDS011;21655;46.056;13.616;2023-07-31T08:53:17;3.63;;;1.38;;
35550;SDS011;21655;46.056;13.616;2023-07-31T08:55:42;2.22;;;1.40;;
35550;SDS011;21655;46.056;13.616;2023-07-31T08:58:09;4.47;;;1.40;;
35550;SDS011;21655;46.056;13.616;2023-07-31T09:00:37;2.03;;;1.30;;
35550;SDS011;21655;46.056;13.616;2023-07-31T09:03:03;2.13;;;1.20;;
35550;SDS011;21655;46.056;13.616;2023-07-31T09:05:43;2.95;;;1.40;;
35550;SDS011;21655;46.056;13.616;2023-07-31T09:08:10;4.65;;;1.30;;
35550;SDS011;21655;46.056;13.616;2023-07-31T09:10:43;3.80;;;1.33;;
35550;SDS011;21655;46.056;13.616;2023-07-31T09:13:10;3.50;;;1.40;;
35550;SDS011;21655;46.056;13.616;2023-07-31T09:15:36;3.13;;;1.13;;
35550;SDS011;21655;46.056;13.616;2023-07-31T09:18:03;3.17;;;1.63;;
35550;SDS011;21655;46.056;13.616;2023-07-31T09:20:30;4.80;;;1.52;;
35550;SDS011;21655;46.056;13.616;2023-07-31T09:22:56;2.40;;;1.33;;
35550;SDS011;21655;46.056;13.616;2023-07-31T09:25:30;1.92;;;1.20;;
35550;SDS011;21655;46.056;13.616;2023-07-31T09:28:08;3.53;;;1.15;;
35550;SDS011;21655;46.056;13.616;2023-07-31T09:30:47;2.10;;;1.30;;
35550;SDS011;21655;46.056;13.616;2023-07-31T09:33:14;2.28;;;1.45;;
35550;SDS011;21655;46.056;13.616;2023-07-31T09:35:40;4.20;;;1.30;;
35550;SDS011;21655;46.056;13.616;2023-07-31T09:38:07;3.08;;;1.50;;
35550;SDS011;21655;46.056;13.616;2023-07-31T09:40:35;5.60;;;1.30;;
35550;SDS011;21655;46.056;13.616;2023-07-31T09:43:05;1.65;;;1.20;;
35550;SDS011;21655;46.056;13.616;2023-07-31T09:45:36;3.13;;;1.20;;
35550;SDS011;21655;46.056;13.616;2023-07-31T09:48:03;2.35;;;1.40;;
35550;SDS011;21655;46.056;13.616;2023-07-31T09:50:34;5.57;;;1.88;;
35550;SDS011;21655;46.056;13.616;2023-07-31T09:53:03;2.28;;;1.40;;
35550;SDS011;21655;46.056;13.616;2023-07-31T09:55:29;4.03;;;1.55;;
35550;SDS011;21655;46.056;13.616;2023-07-31T09:57:55;2.78;;;1.27;;
35550;SDS011;21655;46.056;13.616;2023-07-31T10:00:22;6.28;;;1.40;;
35550;SDS011;21655;46.056;13.616;2023-07-31T10:02:50;3.22;;;1.38;;
35550;SDS011;21655;46.056;13.616;2023-07-31T10:05:16;2.03;;;1.30;;
35550;SDS011;21655;46.056;13.616;2023-07-31T10:07:48;4.22;;;1.40;;
35550;SDS011;21655;46.056;13.616;2023-07-31T10:10:19;8.32;;;1.83;;
35550;SDS011;21655;46.056;13.616;2023-07-31T10:12:45;5.68;;;1.42;;
35550;SDS011;21655;46.056;13.616;2023-07-31T10:15:12;4.60;;;1.77;;
35550;SDS011;21655;46.056;13.616;2023-07-31T10:17:39;8.52;;;1.88;;
35550;SDS011;21655;46.056;13.616;2023-07-31T10:20:05;9.80;;;1.90;;
35550;SDS011;21655;46.056;13.616;2023-07-31T10:22:32;9.15;;;1.75;;
35550;SDS011;21655;46.056;13.616;2023-07-31T10:24:59;9.60;;;2.05;;
35550;SDS011;21655;46.056;13.616;2023-07-31T10:27:25;2.88;;;1.48;;
35550;SDS011;21655;46.056;13.616;2023-07-31T10:29:52;3.38;;;1.27;;
35550;SDS011;21655;46.056;13.616;2023-07-31T10:32:19;3.75;;;1.30;;
35550;SDS011;21655;46.056;13.616;2023-07-31T10:34:46;2.80;;;1.45;;
35550;SDS011;21655;46.056;13.616;2023-07-31T10:37:23;3.75;;;1.50;;
35550;SDS011;21655;46.056;13.616;2023-07-31T10:40:11;8.55;;;1.75;;
35550;SDS011;21655;46.056;13.616;2023-07-31T10:42:51;5.88;;;1.48;;
35550;SDS011;21655;46.056;13.616;2023-07-31T10:45:24;3.92;;;1.52;;
35550;SDS011;21655;46.056;13.616;2023-07-31T10:48:00;2.40;;;1.30;;
35550;SDS011;21655;46.056;13.616;2023-07-31T10:50:27;3.17;;;1.48;;
35550;SDS011;21655;46.056;13.616;2023-07-31T10:52:54;5.20;;;1.92;;
35550;SDS011;21655;46.056;13.616;2023-07-31T11:02:56;4.28;;;1.40;;
35550;SDS011;21655;46.056;13.616;2023-07-31T11:05:40;2.60;;;1.45;;
35550;SDS011;21655;46.056;13.616;2023-07-31T11:08:12;3.15;;;1.50;;
35550;SDS011;21655;46.056;13.616;2023-07-31T11:10:43;2.38;;;1.42;;
35550;SDS011;21655;46.056;13.616;2023-07-31T11:13:09;2.05;;;1.35;;
35550;SDS011;21655;46.056;13.616;2023-07-31T11:15:35;1.98;;;1.30;;
35550;SDS011;21655;46.056;13.616;2023-07-31T11:18:01;1.80;;;1.20;;
35550;SDS011;21655;46.056;13.616;2023-07-31T11:20:35;2.20;;;1.38;;
35550;SDS011;21655;46.056;13.616;2023-07-31T11:23:06;2.28;;;1.60;;
35550;SDS011;21655;46.056;13.616;2023-07-31T11:25:33;2.35;;;1.50;;
35550;SDS011;21655;46.056;13.616;2023-07-31T11:28:03;4.82;;;1.92;;
35550;SDS011;21655;46.056;13.616;2023-07-31T11:30:36;2.60;;;1.35;;
35550;SDS011;21655;46.056;13.616;2023-07-31T11:33:03;4.30;;;1.48;;
35550;SDS011;21655;46.056;13.616;2023-07-31T11:35:32;3.15;;;1.50;;
35550;SDS011;21655;46.056;13.616;2023-07-31T11:38:07;3.17;;;1.38;;
35550;SDS011;21655;46.056;13.616;2023-07-31T11:40:40;2.05;;;1.42;;
35550;SDS011;21655;46.056;13.616;2023-07-31T11:43:07;4.78;;;1.45;;
35550;SDS011;21655;46.056;13.616;2023-07-31T11:45:32;5.72;;;1.60;;
35550;SDS011;21655;46.056;13.616;2023-07-31T11:47:58;3.83;;;1.60;;
35550;SDS011;21655;46.056;13.616;2023-07-31T11:50:24;4.32;;;1.42;;
35550;SDS011;21655;46.056;13.616;2023-07-31T11:52:57;3.42;;;1.42;;
35550;SDS011;21655;46.056;13.616;2023-07-31T11:55:25;3.35;;;1.50;;
35550;SDS011;21655;46.056;13.616;2023-07-31T11:57:52;4.57;;;1.60;;
35550;SDS011;21655;46.056;13.616;2023-07-31T12:00:18;5.15;;;1.52;;
35550;SDS011;21655;46.056;13.616;2023-07-31T12:02:44;5.47;;;1.95;;
35550;SDS011;21655;46.056;13.616;2023-07-31T12:05:10;2.95;;;1.20;;
35550;SDS011;21655;46.056;13.616;2023-07-31T12:07:50;2.10;;;1.42;;
35550;SDS011;21655;46.056;13.616;2023-07-31T12:10:26;3.70;;;1.23;;
35550;SDS011;21655;46.056;13.616;2023-07-31T12:13:00;3.72;;;2.00;;
35550;SDS011;21655;46.056;13.616;2023-07-31T12:18:26;2.78;;;1.25;;
35550;SDS011;21655;46.056;13.616;2023-07-31T12:20:56;4.82;;;1.63;;
35550;SDS011;21655;46.056;13.616;2023-07-31T12:23:24;2.97;;;1.58;;
35550;SDS011;21655;46.056;13.616;2023-07-31T12:26:03;4.45;;;1.40;;
35550;SDS011;21655;46.056;13.616;2023-07-31T12:28:29;2.03;;;1.27;;
35550;SDS011;21655;46.056;13.616;2023-07-31T12:30:57;3.17;;;1.25;;
35550;SDS011;21655;46.056;13.616;2023-07-31T12:33:29;2.78;;;1.70;;
35550;SDS011;21655;46.056;13.616;2023-07-31T12:35:56;2.40;;;1.40;;
35550;SDS011;21655;46.056;13.616;2023-07-31T12:38:22;3.15;;;1.65;;
35550;SDS011;21655;46.056;13.616;2023-07-31T12:40:47;3.83;;;1.67;;
35550;SDS011;21655;46.056;13.616;2023-07-31T12:43:13;2.35;;;1.40;;
35550;SDS011;21655;46.056;13.616;2023-07-31T12:45:38;2.78;;;1.55;;
35550;SDS011;21655;46.056;13.616;2023-07-31T12:48:04;4.50;;;1.60;;
35550;SDS011;21655;46.056;13.616;2023-07-31T12:50:29;2.85;;;1.52;;
35550;SDS011;21655;46.056;13.616;2023-07-31T12:52:55;3.35;;;1.40;;
35550;SDS011;21655;46.056;13.616;2023-07-31T12:55:22;2.80;;;1.50;;
35550;SDS011;21655;46.056;13.616;2023-07-31T12:57:48;4.22;;;1.40;;
35550;SDS011;21655;46.056;13.616;2023-07-31T13:00:14;2.65;;;1.42;;
35550;SDS011;21655;46.056;13.616;2023-07-31T13:02:40;2.47;;;1.40;;
35550;SDS011;21655;46.056;13.616;2023-07-31T13:05:05;3.40;;;1.80;;
35550;SDS011;21655;46.056;13.616;2023-07-31T13:07:31;2.90;;;1.35;;
35550;SDS011;21655;46.056;13.616;2023-07-31T13:09:57;2.95;;;1.50;;
35550;SDS011;21655;46.056;13.616;2023-07-31T13:12:22;4.40;;;1.42;;
35550;SDS011;21655;46.056;13.616;2023-07-31T13:14:47;1.60;;;1.10;;
35550;SDS011;21655;46.056;13.616;2023-07-31T13:17:13;4.68;;;1.50;;
35550;SDS011;21655;46.056;13.616;2023-07-31T13:19:38;2.35;;;1.30;;
35550;SDS011;21655;46.056;13.616;2023-07-31T13:22:04;3.38;;;1.30;;
35550;SDS011;21655;46.056;13.616;2023-07-31T13:24:29;2.30;;;1.38;;
35550;SDS011;21655;46.056;13.616;2023-07-31T13:26:55;2.30;;;1.23;;
35550;SDS011;21655;46.056;13.616;2023-07-31T13:29:22;2.55;;;1.30;;
35550;SDS011;21655;46.056;13.616;2023-07-31T13:31:47;3.42;;;1.60;;
35550;SDS011;21655;46.056;13.616;2023-07-31T13:34:13;4.72;;;1.40;;
35550;SDS011;21655;46.056;13.616;2023-07-31T13:36:38;2.35;;;1.50;;
35550;SDS011;21655;46.056;13.616;2023-07-31T13:39:04;2.65;;;1.20;;
35550;SDS011;21655;46.056;13.616;2023-07-31T13:41:29;5.00;;;1.25;;
35550;SDS011;21655;46.056;13.616;2023-07-31T13:43:54;3.00;;;1.30;;
35550;SDS011;21655;46.056;13.616;2023-07-31T13:46:20;2.30;;;1.30;;
35550;SDS011;21655;46.056;13.616;2023-07-31T13:48:45;2.13;;;1.13;;
35550;SDS011;21655;46.056;13.616;2023-07-31T13:51:11;2.38;;;1.40;;
35550;SDS011;21655;46.056;13.616;2023-07-31T13:53:36;2.10;;;1.30;;
35550;SDS011;21655;46.056;13.616;2023-07-31T13:56:01;2.20;;;1.20;;
35550;SDS011;21655;46.056;13.616;2023-07-31T13:58:27;2.22;;;1.15;;
35550;SDS011;21655;46.056;13.616;2023-07-31T14:00:52;2.90;;;1.45;;
35550;SDS011;21655;46.056;13.616;2023-07-31T14:03:18;4.97;;;1.30;;
35550;SDS011;21655;46.056;13.616;2023-07-31T14:05:43;2.45;;;1.20;;
35550;SDS011;21655;46.056;13.616;2023-07-31T14:08:09;2.78;;;1.58;;
35550;SDS011;21655;46.056;13.616;2023-07-31T14:10:34;3.20;;;1.50;;
35550;SDS011;21655;46.056;13.616;2023-07-31T14:12:59;2.80;;;1.40;;
35550;SDS011;21655;46.056;13.616;2023-07-31T14:15:25;2.40;;;1.17;;
35550;SDS011;21655;46.056;13.616;2023-07-31T14:17:50;2.17;;;1.35;;
35550;SDS011;21655;46.056;13.616;2023-07-31T14:20:15;2.15;;;1.10;;
35550;SDS011;21655;46.056;13.616;2023-07-31T14:22:41;2.08;;;1.13;;
35550;SDS011;21655;46.056;13.616;2023-07-31T14:25:06;2.65;;;1.60;;
35550;SDS011;21655;46.056;13.616;2023-07-31T14:27:35;2.53;;;1.60;;
35550;SDS011;21655;46.056;13.616;2023-07-31T14:30:00;2.05;;;1.27;;
35550;SDS011;21655;46.056;13.616;2023-07-31T14:32:26;2.53;;;1.50;;
35550;SDS011;21655;46.056;13.616;2023-07-31T14:34:51;2.08;;;1.00;;
35550;SDS011;21655;46.056;13.616;2023-07-31T14:37:17;3.05;;;1.50;;
35550;SDS011;21655;46.056;13.616;2023-07-31T14:39:42;2.45;;;1.33;;
35550;SDS011;21655;46.056;13.616;2023-07-31T14:42:08;3.20;;;1.35;;
35550;SDS011;21655;46.056;13.616;2023-07-31T14:44:34;2.97;;;1.33;;
35550;SDS011;21655;46.056;13.616;2023-07-31T14:46:59;2.53;;;1.60;;